createdAt,value
2022-12-25T00:01:22.525Z,101112.09
2022-12-25T00:03:57.725Z,101116.47
2022-12-25T00:06:30.719Z,101103.56
2022-12-25T00:09:03.872Z,101116.03
2022-12-25T00:11:36.723Z,101119.53
2022-12-25T00:14:10.959Z,101117.75
2022-12-25T00:16:43.958Z,101117.56
2022-12-25T00:19:16.836Z,101096.81
2022-12-25T00:21:49.634Z,101118.00
2022-12-25T00:24:22.404Z,101114.25
2022-12-25T00:26:55.202Z,101114.25
2022-12-25T00:29:29.615Z,101113.31
2022-12-25T00:32:02.525Z,101104.06
2022-12-25T00:34:35.874Z,101108.28
2022-12-25T00:37:08.935Z,101106.38
2022-12-25T00:39:41.784Z,101105.63
2022-12-25T00:42:20.761Z,101094.09
2022-12-25T00:44:55.210Z,101098.97
2022-12-25T00:47:28.505Z,101104.59
2022-12-25T00:50:01.376Z,101094.19
2022-12-25T00:52:34.715Z,101098.25
2022-12-25T00:55:08.096Z,101089.31
2022-12-25T00:57:40.923Z,101092.72
2022-12-25T01:00:16.625Z,101092.63
2022-12-25T01:02:49.555Z,101098.44
2022-12-25T01:05:22.449Z,101098.56
2022-12-25T01:07:55.298Z,101095.97
2022-12-25T01:10:27.185Z,101094.09
2022-12-25T01:13:00.045Z,101090.81
2022-12-25T01:15:34.260Z,101090.47
2022-12-25T01:18:08.003Z,101095.00
2022-12-25T01:20:41.860Z,101091.41
2022-12-25T01:23:14.959Z,101084.41
2022-12-25T01:25:47.806Z,101085.75
2022-12-25T01:28:20.644Z,101096.19
2022-12-25T01:30:55.365Z,101090.88
2022-12-25T01:33:28.252Z,101075.16
2022-12-25T01:36:01.040Z,101076.34
2022-12-25T01:38:33.857Z,101061.84
2022-12-25T01:41:06.709Z,101071.59
2022-12-25T01:43:58.769Z,101073.50
2022-12-25T01:46:33.493Z,101088.66
2022-12-25T01:49:11.941Z,101089.75
2022-12-25T01:51:48.052Z,101094.25
2022-12-25T01:54:25.277Z,101073.81
2022-12-25T01:57:03.370Z,101080.25
2022-12-25T01:59:36.708Z,101080.94
2022-12-25T02:02:11.042Z,101084.47
2022-12-25T02:04:49.075Z,101084.34
2022-12-25T02:07:24.423Z,101091.75
2022-12-25T02:09:57.194Z,101094.59
2022-12-25T02:12:33.077Z,101080.22
2022-12-25T02:15:09.322Z,101087.81
2022-12-25T02:17:50.796Z,101080.41
2022-12-25T02:20:54.739Z,101089.50
2022-12-25T02:23:44.757Z,101078.22
2022-12-25T02:26:29.222Z,101098.09
2022-12-25T02:29:11.175Z,101089.78
2022-12-25T02:31:51.352Z,101089.78
2022-12-25T02:34:35.076Z,101086.28
2022-12-25T02:37:13.424Z,101091.25
2022-12-25T02:39:59.726Z,101098.16
2022-12-25T02:43:00.045Z,101092.97
2022-12-25T02:45:56.528Z,101085.94
2022-12-25T02:48:51.495Z,101094.50
2022-12-25T02:51:46.096Z,101082.34
2022-12-25T02:54:41.858Z,101087.28
2022-12-25T02:57:47.665Z,101095.81
2022-12-25T03:00:38.676Z,101091.38
2022-12-25T03:03:32.783Z,101102.44
2022-12-25T03:06:37.525Z,101104.16
2022-12-25T03:09:31.308Z,101101.56
2022-12-25T03:12:12.192Z,101099.28
2022-12-25T03:15:02.882Z,101091.06
2022-12-25T03:17:36.986Z,101086.50
2022-12-25T03:20:31.756Z,101092.50
2022-12-25T03:23:27.970Z,101093.91
2022-12-25T03:26:18.962Z,101092.00
2022-12-25T03:28:51.786Z,101092.19
2022-12-25T03:31:32.404Z,101086.38
2022-12-25T03:34:42.748Z,101085.34
2022-12-25T03:37:44.594Z,101068.63
2022-12-25T03:40:42.927Z,101066.47
2022-12-25T03:43:44.817Z,101061.41
2022-12-25T03:46:38.551Z,101046.34
2022-12-25T03:49:36.044Z,101048.16
2022-12-25T03:52:30.576Z,101031.47
2022-12-25T03:55:28.227Z,101039.44
2022-12-25T03:58:18.486Z,101034.25
2022-12-25T04:01:08.761Z,101022.19
2022-12-25T04:03:59.098Z,101025.53
2022-12-25T04:07:00.948Z,101024.81
2022-12-25T04:09:51.097Z,101018.75
2022-12-25T04:12:42.963Z,101016.09
2022-12-25T04:15:33.502Z,101019.28
2022-12-25T04:18:24.162Z,100995.88
2022-12-25T04:21:14.522Z,101024.06
2022-12-25T04:24:05.181Z,101016.84
2022-12-25T04:26:55.539Z,101029.94
2022-12-25T04:29:47.162Z,101036.84
2022-12-25T04:32:37.407Z,101029.44
2022-12-25T04:35:28.083Z,101028.78
2022-12-25T04:38:00.868Z,101026.25
2022-12-25T04:40:33.826Z,101020.72
2022-12-25T04:43:06.679Z,101029.19
2022-12-25T04:45:40.810Z,101031.13
2022-12-25T04:48:13.654Z,101027.72
2022-12-25T04:50:46.560Z,101039.84
2022-12-25T04:53:19.617Z,101042.50
2022-12-25T04:56:02.129Z,101028.13
2022-12-25T04:58:35.042Z,101025.75
2022-12-25T05:01:09.647Z,101020.66
2022-12-25T05:03:43.059Z,101028.88
2022-12-25T05:06:15.898Z,101019.75
2022-12-25T05:08:48.775Z,101025.28
2022-12-25T05:11:22.986Z,101023.28
2022-12-25T05:13:55.738Z,101022.72
2022-12-25T05:16:29.978Z,101024.59
2022-12-25T05:19:02.841Z,101021.19
2022-12-25T05:21:35.650Z,101017.59
2022-12-25T05:24:08.500Z,101018.88
2022-12-25T05:26:41.278Z,101007.50
2022-12-25T05:29:14.253Z,101009.75
2022-12-25T05:31:48.419Z,101015.44
2022-12-25T05:34:21.296Z,101013.63
2022-12-25T05:36:54.119Z,101008.69
2022-12-25T05:39:26.883Z,100998.66
2022-12-25T05:41:59.683Z,101011.38
2022-12-25T05:44:32.433Z,101005.13
2022-12-25T05:47:06.695Z,101003.50
2022-12-25T05:49:39.695Z,101003.91
2022-12-25T05:52:12.779Z,100995.38
2022-12-25T05:54:45.688Z,100994.34
2022-12-25T05:57:18.466Z,101005.63
2022-12-25T05:59:51.263Z,100996.72
2022-12-25T06:02:25.964Z,100992.72
2022-12-25T06:04:58.938Z,100998.19
2022-12-25T06:07:31.937Z,100999.47
2022-12-25T06:10:05.399Z,100998.03
2022-12-25T06:12:38.398Z,101014.06
2022-12-25T06:15:11.852Z,100996.63
2022-12-25T06:17:46.035Z,100994.06
2022-12-25T06:20:19.452Z,100989.44
2022-12-25T06:22:52.354Z,100991.31
2022-12-25T06:25:25.400Z,100984.63
2022-12-25T06:27:58.219Z,100970.56
2022-12-25T06:30:30.994Z,100963.66
2022-12-25T06:33:05.233Z,100963.97
2022-12-25T06:35:40.031Z,100961.31
2022-12-25T06:38:12.914Z,100953.63
2022-12-25T06:40:45.735Z,100960.72
2022-12-25T06:43:18.587Z,100960.16
2022-12-25T06:45:52.924Z,100947.41
2022-12-25T06:48:27.265Z,100935.00
2022-12-25T06:51:00.066Z,100932.13
2022-12-25T06:53:40.272Z,100936.59
2022-12-25T06:56:16.206Z,100935.38
2022-12-25T06:58:51.536Z,100941.03
2022-12-25T07:01:28.223Z,100942.63
2022-12-25T07:04:04.280Z,100941.03
2022-12-25T07:06:37.065Z,100946.91
2022-12-25T07:09:09.883Z,100944.91
2022-12-25T07:11:42.714Z,100936.84
2022-12-25T07:14:24.210Z,100921.78
2022-12-25T07:16:57.715Z,100934.84
2022-12-25T07:19:32.048Z,100929.28
2022-12-25T07:22:04.909Z,100919.81
2022-12-25T07:24:37.787Z,100908.97
2022-12-25T07:27:11.924Z,100902.41
2022-12-25T07:29:44.726Z,100897.28
2022-12-25T07:32:17.537Z,100883.94
2022-12-25T07:34:51.680Z,100894.63
2022-12-25T07:37:24.659Z,100882.50
2022-12-25T07:39:57.518Z,100876.50
2022-12-25T07:42:30.307Z,100889.78
2022-12-25T07:45:03.211Z,100888.19
2022-12-25T07:47:36.234Z,100902.78
2022-12-25T07:50:12.016Z,100908.44
2022-12-25T07:52:47.009Z,100891.22
2022-12-25T07:55:19.722Z,100906.94
2022-12-25T07:57:52.784Z,100899.81
2022-12-25T08:00:29.538Z,100908.50
2022-12-25T08:03:02.715Z,100903.53
2022-12-25T08:05:37.028Z,100902.16
2022-12-25T08:08:09.838Z,100894.00
2022-12-25T08:10:47.193Z,100889.53
2022-12-25T08:13:20.162Z,100896.84
2022-12-25T08:15:59.216Z,100874.59
2022-12-25T08:18:32.960Z,100880.59
2022-12-25T08:21:09.368Z,100878.06
2022-12-25T08:23:43.844Z,100875.06
2022-12-25T08:26:18.977Z,100871.84
2022-12-25T08:28:52.210Z,100887.44
2022-12-25T08:31:26.733Z,100904.84
2022-12-25T08:34:00.250Z,100888.69
2022-12-25T08:36:34.612Z,100901.38
2022-12-25T08:39:07.359Z,100910.88
2022-12-25T08:41:40.271Z,100919.22
2022-12-25T08:44:13.325Z,100908.50
2022-12-25T08:46:46.365Z,100902.34
2022-12-25T08:49:19.436Z,100908.00
2022-12-25T08:51:53.825Z,100897.38
2022-12-25T08:54:26.653Z,100927.00
2022-12-25T08:57:02.914Z,100919.97
2022-12-25T08:59:35.982Z,100913.16
2022-12-25T09:02:10.642Z,100897.88
2022-12-25T09:04:45.954Z,100900.00
2022-12-25T09:07:20.047Z,100902.66
2022-12-25T09:09:53.077Z,100905.03
2022-12-25T09:12:25.855Z,100898.44
2022-12-25T09:14:58.621Z,100903.19
2022-12-25T09:17:31.464Z,100882.84
2022-12-25T09:20:04.710Z,100898.38
2022-12-25T09:22:39.390Z,100890.66
2022-12-25T09:25:12.732Z,100895.00
2022-12-25T09:27:45.485Z,100893.53
2022-12-25T09:30:18.274Z,100887.47
2022-12-25T09:32:51.096Z,100894.66
2022-12-25T09:35:24.095Z,100891.94
2022-12-25T09:37:58.190Z,100892.78
2022-12-25T09:40:33.171Z,100894.25
2022-12-25T09:43:05.956Z,100893.53
2022-12-25T09:45:40.313Z,100881.81
2022-12-25T09:48:16.935Z,100879.84
2022-12-25T09:50:52.859Z,100886.06
2022-12-25T09:53:29.298Z,100899.28
2022-12-25T09:56:09.932Z,100880.34
2022-12-25T09:58:42.828Z,100909.38
2022-12-25T10:01:27.491Z,100908.19
2022-12-25T10:04:12.568Z,100908.09
2022-12-25T10:06:58.353Z,100909.06
2022-12-25T10:10:00.441Z,100908.84
2022-12-25T10:12:46.200Z,100899.28
2022-12-25T10:15:32.828Z,100891.00
2022-12-25T10:18:33.823Z,100866.97
2022-12-25T10:21:13.519Z,100856.03
2022-12-25T10:23:50.975Z,100852.41
2022-12-25T10:26:26.808Z,100858.03
2022-12-25T10:29:03.739Z,100860.16
2022-12-25T10:31:38.487Z,100852.81
2022-12-25T10:34:14.574Z,100822.81
2022-12-25T10:36:49.935Z,100819.94
2022-12-25T10:39:25.487Z,100816.63
2022-12-25T10:42:12.001Z,100812.06
2022-12-25T10:44:56.466Z,100820.34
2022-12-25T10:47:31.951Z,100821.56
2022-12-25T10:50:11.094Z,100824.22
2022-12-25T10:52:56.998Z,100835.63
2022-12-25T10:55:30.024Z,100844.53
2022-12-25T10:58:04.526Z,100841.16
2022-12-25T11:00:37.395Z,100826.38
2022-12-25T11:03:23.141Z,100838.03
2022-12-25T11:05:56.483Z,100815.50
2022-12-25T11:08:31.566Z,100817.94
2022-12-25T11:11:06.971Z,100810.25
2022-12-25T11:13:49.324Z,100792.28
2022-12-25T11:16:31.532Z,100789.72
2022-12-25T11:19:22.501Z,100791.19
2022-12-25T11:21:57.935Z,100790.94
2022-12-25T11:24:32.837Z,100784.69
2022-12-25T11:27:07.030Z,100784.91
2022-12-25T11:29:45.920Z,100781.06
2022-12-25T11:32:23.946Z,100770.63
2022-12-25T11:34:57.572Z,100758.84
2022-12-25T11:37:36.274Z,100751.00
2022-12-25T11:40:15.760Z,100750.16
2022-12-25T11:42:52.557Z,100749.31
2022-12-25T11:45:33.068Z,100736.13
2022-12-25T11:48:12.552Z,100747.75
2022-12-25T11:50:49.363Z,100740.50
2022-12-25T11:53:30.221Z,100721.63
2022-12-25T11:56:08.931Z,100719.94
2022-12-25T11:58:44.818Z,100718.00
2022-12-25T12:01:28.631Z,100710.78
2022-12-25T12:04:03.857Z,100706.44
2022-12-25T12:06:47.217Z,100705.34
2022-12-25T12:09:31.242Z,100694.44
2022-12-25T12:12:11.261Z,100677.16
2022-12-25T12:14:50.346Z,100674.38
2022-12-25T12:17:24.604Z,100660.94
2022-12-25T12:19:58.808Z,100652.22
2022-12-25T12:22:31.641Z,100656.28
2022-12-25T12:25:08.441Z,100642.31
2022-12-25T12:27:42.875Z,100644.00
2022-12-25T12:30:24.908Z,100651.00
2022-12-25T12:33:01.899Z,100659.50
2022-12-25T12:35:37.902Z,100637.56
2022-12-25T12:38:16.341Z,100656.28
2022-12-25T12:40:55.651Z,100649.13
2022-12-25T12:43:33.073Z,100645.25
2022-12-25T12:46:15.728Z,100641.63
2022-12-25T12:48:52.918Z,100638.97
2022-12-25T12:51:31.000Z,100642.38
2022-12-25T12:54:20.380Z,100627.72
2022-12-25T12:56:57.977Z,100620.28
2022-12-25T12:59:39.220Z,100625.66
2022-12-25T13:02:45.061Z,100628.81
2022-12-25T13:05:34.209Z,100584.47
2022-12-25T13:08:20.531Z,100595.13
2022-12-25T13:11:04.735Z,100601.91
2022-12-25T13:13:41.030Z,100622.75
2022-12-25T13:16:20.947Z,100613.81
2022-12-25T13:18:55.501Z,100581.59
2022-12-25T13:21:30.311Z,100599.78
2022-12-25T13:24:07.157Z,100570.81
2022-12-25T13:26:40.463Z,100575.19
2022-12-25T13:29:23.577Z,100558.59
2022-12-25T13:31:56.946Z,100537.44
2022-12-25T13:34:32.544Z,100587.41
2022-12-25T13:37:14.007Z,100571.53
2022-12-25T13:39:51.421Z,100567.31
2022-12-25T13:42:27.638Z,100575.75
2022-12-25T13:45:03.165Z,100592.72
2022-12-25T13:47:38.708Z,100583.81
2022-12-25T13:50:21.064Z,100591.16
2022-12-25T13:52:59.061Z,100582.59
2022-12-25T13:55:34.231Z,100580.38
2022-12-25T13:58:12.121Z,100578.69
2022-12-25T14:00:49.019Z,100580.38
2022-12-25T14:03:24.897Z,100582.09
2022-12-25T14:05:59.506Z,100579.41
2022-12-25T14:08:36.331Z,100582.09
2022-12-25T14:11:10.003Z,100584.88
2022-12-25T14:13:45.304Z,100572.53
2022-12-25T14:16:19.481Z,100575.91
2022-12-25T14:18:54.499Z,100574.22
2022-12-25T14:21:31.546Z,100571.44
2022-12-25T14:24:13.703Z,100564.94
2022-12-25T14:26:46.513Z,100561.75
2022-12-25T14:29:25.049Z,100566.09
2022-12-25T14:32:05.502Z,100544.22
2022-12-25T14:34:38.590Z,100520.59
2022-12-25T14:37:17.788Z,100545.91
2022-12-25T14:40:00.400Z,100529.34
2022-12-25T14:42:35.914Z,100531.03
2022-12-25T14:45:28.088Z,100529.09
2022-12-25T14:48:03.957Z,100541.22
2022-12-25T14:50:43.139Z,100526.69
2022-12-25T14:53:20.800Z,100535.13
2022-12-25T14:55:56.324Z,100532.47
2022-12-25T14:58:32.665Z,100518.69
2022-12-25T15:01:06.615Z,100508.06
2022-12-25T15:03:39.618Z,100517.34
2022-12-25T15:06:20.086Z,100506.69
2022-12-25T15:08:58.480Z,100510.31
2022-12-25T15:11:32.614Z,100511.19
2022-12-25T15:14:05.443Z,100521.81
2022-12-25T15:16:42.698Z,100526.44
2022-12-25T15:19:25.013Z,100523.06
2022-12-25T15:21:59.608Z,100515.53
2022-12-25T15:24:32.408Z,100509.75
2022-12-25T15:27:13.539Z,100523.50
2022-12-25T15:32:39.414Z,100509.97
2022-12-25T15:35:16.482Z,100513.34
2022-12-25T15:37:49.483Z,100507.31
2022-12-25T15:40:22.348Z,100496.66
2022-12-25T15:42:56.896Z,100482.38
2022-12-25T15:45:31.043Z,100496.41
2022-12-25T15:48:03.862Z,100495.81
2022-12-25T15:50:37.604Z,100500.88
2022-12-25T15:53:11.389Z,100477.31
2022-12-25T15:55:44.198Z,100489.38
2022-12-25T15:58:18.603Z,100482.38
2022-12-25T16:00:51.654Z,100483.81
2022-12-25T16:03:24.549Z,100470.75
2022-12-25T16:05:57.662Z,100478.38
2022-12-25T16:08:30.466Z,100481.88
2022-12-25T16:11:03.286Z,100480.91
2022-12-25T16:13:37.739Z,100462.78
2022-12-25T16:16:10.782Z,100474.63
2022-12-25T16:18:47.630Z,100474.63
2022-12-25T16:21:25.241Z,100477.50
2022-12-25T16:23:58.127Z,100458.03
2022-12-25T16:26:33.142Z,100475.69
2022-12-25T16:29:07.954Z,100474.34
2022-12-25T16:31:41.473Z,100460.31
2022-12-25T16:34:14.521Z,100458.88
2022-12-25T16:36:47.311Z,100469.16
2022-12-25T16:39:20.169Z,100472.66
2022-12-25T16:41:52.994Z,100456.81
2022-12-25T16:44:27.423Z,100444.00
2022-12-25T16:47:00.248Z,100455.50
2022-12-25T16:49:33.248Z,100457.81
2022-12-25T16:52:08.265Z,100457.72
2022-12-25T16:54:40.923Z,100462.50
2022-12-25T16:57:14.160Z,100466.16
2022-12-25T16:59:48.440Z,100456.34
2022-12-25T17:02:22.652Z,100446.31
2022-12-25T17:04:55.668Z,100458.63
2022-12-25T17:07:28.559Z,100455.50
2022-12-25T17:10:01.370Z,100454.53
2022-12-25T17:12:34.716Z,100445.47
2022-12-25T17:15:10.211Z,100448.00
2022-12-25T17:17:43.158Z,100447.72
2022-12-25T17:20:16.184Z,100439.59
2022-12-25T17:22:49.846Z,100438.53
2022-12-25T17:25:22.797Z,100443.59
2022-12-25T17:27:55.647Z,100441.28
2022-12-25T17:30:29.786Z,100452.56
2022-12-25T17:33:02.607Z,100441.06
2022-12-25T17:35:37.321Z,100442.41
2022-12-25T17:38:10.133Z,100432.84
2022-12-25T17:40:42.939Z,100440.44
2022-12-25T17:43:20.707Z,100424.25
2022-12-25T17:45:55.628Z,100443.63
2022-12-25T17:48:28.466Z,100435.25
2022-12-25T17:51:01.781Z,100445.91
2022-12-25T17:53:36.006Z,100441.69
2022-12-25T17:56:10.060Z,100429.22
2022-12-25T17:58:43.651Z,100440.59
2022-12-25T18:01:18.204Z,100445.28
2022-12-25T18:03:51.854Z,100444.69
2022-12-25T18:06:27.757Z,100433.97
2022-12-25T18:09:00.622Z,100440.59
2022-12-25T18:11:36.735Z,100446.53
2022-12-25T18:14:13.173Z,100451.56
2022-12-25T18:16:47.718Z,100446.63
2022-12-25T18:19:20.736Z,100447.50
2022-12-25T18:21:54.361Z,100446.97
2022-12-25T18:24:27.349Z,100450.47
2022-12-25T18:27:00.229Z,100441.41
2022-12-25T18:29:33.086Z,100436.06
2022-12-25T18:32:07.866Z,100440.75
2022-12-25T18:34:40.863Z,100444.84
2022-12-25T18:37:13.635Z,100445.91
2022-12-25T18:39:46.487Z,100434.00
2022-12-25T18:42:36.590Z,100432.84
2022-12-25T18:45:12.677Z,100442.22
2022-12-25T18:47:47.221Z,100427.78
2022-12-25T18:50:20.870Z,100437.09
2022-12-25T18:52:53.752Z,100444.16
2022-12-25T18:55:26.701Z,100435.63
2022-12-25T18:58:00.180Z,100433.06
2022-12-25T19:00:33.104Z,100438.72
2022-12-25T19:03:07.516Z,100441.41
2022-12-25T19:05:42.008Z,100424.00
2022-12-25T19:08:15.060Z,100434.25
2022-12-25T19:10:48.232Z,100430.50
2022-12-25T19:13:22.145Z,100441.72
2022-12-25T19:15:59.033Z,100439.91
2022-12-25T19:18:33.247Z,100447.91
2022-12-25T19:21:08.205Z,100450.19
2022-12-25T19:23:41.552Z,100442.28
2022-12-25T19:26:14.529Z,100447.91
2022-12-25T19:28:47.701Z,100449.84
2022-12-25T19:31:21.253Z,100448.47
2022-12-25T19:33:55.599Z,100413.75
2022-12-25T19:36:28.389Z,100428.88
2022-12-25T19:39:01.578Z,100431.13
2022-12-25T19:41:35.576Z,100446.09
2022-12-25T19:44:08.511Z,100439.19
2022-12-25T19:46:42.150Z,100435.97
2022-12-25T19:49:16.308Z,100441.03
2022-12-25T19:51:49.176Z,100435.97
2022-12-25T19:54:21.969Z,100439.09
2022-12-25T19:56:54.772Z,100441.19
2022-12-25T19:59:27.594Z,100453.56
2022-12-25T20:02:00.837Z,100443.31
2022-12-25T20:04:35.224Z,100454.84
2022-12-25T20:07:08.090Z,100450.63
2022-12-25T20:09:40.880Z,100430.34
2022-12-25T20:12:16.240Z,100446.69
2022-12-25T20:14:49.297Z,100456.66
2022-12-25T20:17:22.164Z,100454.84
2022-12-25T20:19:56.325Z,100441.34
2022-12-25T20:22:29.156Z,100429.28
2022-12-25T20:25:03.174Z,100440.25
2022-12-25T20:27:36.226Z,100463.31
2022-12-25T20:30:10.260Z,100450.06
2022-12-25T20:32:49.804Z,100449.97
2022-12-25T20:35:24.990Z,100460.63
2022-12-25T20:37:57.797Z,100456.53
2022-12-25T20:40:32.457Z,100464.28
2022-12-25T20:43:14.419Z,100473.97
2022-12-25T20:45:52.575Z,100476.75
2022-12-25T20:48:26.116Z,100472.41
2022-12-25T20:51:08.849Z,100469.63
2022-12-25T20:53:42.095Z,100466.09
2022-12-25T20:56:17.230Z,100475.53
2022-12-25T20:58:54.596Z,100474.81
2022-12-25T21:01:29.609Z,100469.50
2022-12-25T21:04:02.695Z,100471.16
2022-12-25T21:06:36.959Z,100468.09
2022-12-25T21:09:09.784Z,100478.19
2022-12-25T21:11:42.629Z,100466.16
2022-12-25T21:14:15.574Z,100459.50
2022-12-25T21:16:50.056Z,100472.59
2022-12-25T21:19:22.957Z,100467.50
2022-12-25T21:21:57.259Z,100481.06
2022-12-25T21:24:30.100Z,100478.53
2022-12-25T21:27:02.946Z,100462.91
2022-12-25T21:29:35.899Z,100461.34
2022-12-25T21:32:26.076Z,100437.69
2022-12-25T21:34:58.893Z,100463.88
2022-12-25T21:37:33.948Z,100468.09
2022-12-25T21:40:12.805Z,100460.00
2022-12-25T21:42:48.921Z,100463.78
2022-12-25T21:45:21.813Z,100479.38
2022-12-25T21:48:01.851Z,100484.72
2022-12-25T21:50:53.421Z,100485.56
2022-12-25T21:53:27.619Z,100473.59
2022-12-25T21:56:02.768Z,100485.41
2022-12-25T21:58:35.644Z,100489.91
2022-12-25T22:01:08.489Z,100490.31
2022-12-25T22:03:41.416Z,100498.31
2022-12-25T22:06:31.800Z,100497.38
2022-12-25T22:09:07.870Z,100496.75
2022-12-25T22:11:58.102Z,100504.06
2022-12-25T22:14:51.196Z,100500.69
2022-12-25T22:17:45.560Z,100516.69
2022-12-25T22:20:20.296Z,100517.25
2022-12-25T22:22:54.547Z,100505.63
2022-12-25T22:25:29.335Z,100503.41
2022-12-25T22:28:02.249Z,100494.81
2022-12-25T22:30:35.104Z,100518.59
2022-12-25T22:33:07.926Z,100527.44
2022-12-25T22:35:40.860Z,100538.13
2022-12-25T22:38:13.653Z,100538.38
2022-12-25T22:40:47.797Z,100518.38
2022-12-25T22:43:20.767Z,100536.69
2022-12-25T22:45:53.683Z,100521.66
2022-12-25T22:48:26.728Z,100535.59
2022-12-25T22:51:02.947Z,100531.19
2022-12-25T22:53:35.870Z,100530.13
2022-12-25T22:56:10.496Z,100538.38
2022-12-25T22:58:43.530Z,100523.34
2022-12-25T23:01:17.006Z,100525.88
2022-12-25T23:03:53.964Z,100534.59
2022-12-25T23:06:28.072Z,100513.63
2022-12-25T23:09:01.148Z,100516.19
2022-12-25T23:11:36.147Z,100524.50
2022-12-25T23:14:27.903Z,100522.09
2022-12-25T23:17:01.355Z,100515.56
2022-12-25T23:19:51.938Z,100530.13
2022-12-25T23:22:42.325Z,100527.69
2022-12-25T23:25:33.675Z,100523.59
2022-12-25T23:28:07.875Z,100544.44
2022-12-25T23:30:39.968Z,100525.41
2022-12-25T23:33:14.616Z,100537.66
2022-12-25T23:35:47.448Z,100539.59
2022-12-25T23:38:21.574Z,100548.44
2022-12-25T23:40:54.440Z,100528.47
2022-12-25T23:43:28.833Z,100533.81
2022-12-25T23:46:01.769Z,100544.25
2022-12-25T23:48:34.919Z,100533.56
2022-12-25T23:51:08.669Z,100536.38
2022-12-25T23:53:41.562Z,100527.91
2022-12-25T23:56:14.766Z,100530.44
2022-12-25T23:58:51.711Z,100521.72
